Time;durP1;ratioP1;P1;durP2;ratioP2;P2;SDS_P1;SDS_P2;PMS_P1;PMS_P2;Temp;Humidity;BMP_temperature;BMP_pressure;BME280_temperature;BME280_humidity;BME280_pressure;Samples;Min_cycle;Max_cycle;Signal;HPM_P1;HPM_P2
2022/08/05 00:02:06;;;;;;;3.93;1.10;;;15.70;99.90;;;;;;4957192;29;20203;-74
2022/08/05 00:04:33;;;;;;;4.40;1.20;;;15.70;99.90;;;;;;4957419;29;20223;-74
2022/08/05 00:07:01;;;;;;;2.53;1.00;;;15.60;99.90;;;;;;4957150;29;20746;-74
2022/08/05 00:09:28;;;;;;;5.03;1.20;;;15.60;99.90;;;;;;4956970;28;20295;-74
2022/08/05 00:11:55;;;;;;;6.80;1.17;;;15.50;99.90;;;;;;4956933;29;20711;-74
2022/08/05 00:14:22;;;;;;;1.63;0.90;;;15.40;99.90;;;;;;4957320;28;20241;-74
2022/08/05 00:16:49;;;;;;;2.93;1.30;;;15.40;99.90;;;;;;4956835;28;20258;-74
2022/08/05 00:19:17;;;;;;;3.57;1.37;;;15.30;99.90;;;;;;4956864;28;20294;-74
2022/08/05 00:21:44;;;;;;;4.10;1.13;;;15.30;99.90;;;;;;4956881;29;20242;-74
2022/08/05 00:24:11;;;;;;;3.60;1.00;;;15.20;99.90;;;;;;4956691;29;20250;-74
2022/08/05 00:26:38;;;;;;;1.93;1.50;;;15.20;99.90;;;;;;4956541;29;20286;-74
2022/08/05 00:29:05;;;;;;;2.10;1.10;;;15.20;99.90;;;;;;4956660;29;20263;-74
2022/08/05 00:31:32;;;;;;;3.80;1.13;;;15.30;99.90;;;;;;4956689;29;20298;-74
2022/08/05 00:33:59;;;;;;;3.20;1.20;;;15.30;99.90;;;;;;4956974;29;20234;-74
2022/08/05 00:36:27;;;;;;;3.67;1.40;;;15.30;99.90;;;;;;4956128;28;20283;-74
2022/08/05 00:38:54;;;;;;;2.47;1.07;;;15.20;99.90;;;;;;4956786;28;20239;-73
2022/08/05 00:41:29;;;;;;;3.40;0.90;;;15.20;99.90;;;;;;4956475;29;20297;-74
2022/08/05 00:43:56;;;;;;;4.07;1.20;;;15.10;99.90;;;;;;4956516;28;20266;-74
2022/08/05 00:46:23;;;;;;;3.27;1.07;;;15.10;99.90;;;;;;4956427;28;20263;-74
2022/08/05 00:48:50;;;;;;;1.30;0.97;;;15.10;99.90;;;;;;4956344;29;20319;-74
2022/08/05 00:51:17;;;;;;;3.40;1.20;;;15.10;99.90;;;;;;4956058;29;20262;-74
2022/08/05 00:53:46;;;;;;;2.03;1.00;;;15.00;99.90;;;;;;4956559;28;20239;-74
2022/08/05 00:56:14;;;;;;;4.53;1.20;;;15.00;99.90;;;;;;4956502;29;20234;-74
2022/08/05 00:58:42;;;;;;;3.97;1.00;;;15.10;99.90;;;;;;4956183;29;20266;-74
2022/08/05 01:01:10;;;;;;;3.83;1.20;;;15.10;99.90;;;;;;4955998;28;20322;-73
2022/08/05 01:03:37;;;;;;;2.37;1.20;;;15.00;99.90;;;;;;4956168;29;20239;-74
2022/08/05 01:06:04;;;;;;;3.20;0.90;;;15.10;99.90;;;;;;4955727;29;20229;-74
2022/08/05 01:08:31;;;;;;;2.63;1.10;;;15.00;99.90;;;;;;4956245;29;20239;-73
2022/08/05 01:11:04;;;;;;;2.13;1.10;;;15.00;99.90;;;;;;4956079;28;20206;-73
2022/08/05 01:13:38;;;;;;;2.83;1.20;;;15.00;99.90;;;;;;4955957;28;20234;-73
2022/08/05 01:16:10;;;;;;;3.30;1.20;;;15.00;99.90;;;;;;4955913;28;20290;-74
2022/08/05 01:18:42;;;;;;;4.60;1.10;;;15.10;99.90;;;;;;4956068;28;20289;-74
2022/08/05 01:21:18;;;;;;;4.80;1.13;;;15.20;99.90;;;;;;4955654;28;20659;-77
2022/08/05 01:24:01;;;;;;;3.93;0.90;;;15.30;99.90;;;;;;4948638;29;20242;-76
2022/08/05 01:26:44;;;;;;;2.20;1.00;;;15.30;99.90;;;;;;4936669;29;20319;-77
2022/08/05 01:29:19;;;;;;;2.00;0.93;;;15.30;99.90;;;;;;4936617;29;20242;-76
2022/08/05 01:31:50;;;;;;;2.70;0.93;;;15.30;99.90;;;;;;4936664;29;20203;-77
2022/08/05 01:34:22;;;;;;;2.13;1.13;;;15.30;99.90;;;;;;4936308;29;20204;-77
2022/08/05 01:36:53;;;;;;;2.60;1.07;;;15.30;99.90;;;;;;4936677;29;20234;-77
2022/08/05 01:39:22;;;;;;;1.17;0.90;;;15.30;99.90;;;;;;4936407;29;20256;-77
2022/08/05 01:41:50;;;;;;;3.33;1.10;;;15.20;99.90;;;;;;4936465;29;20295;-77
2022/08/05 01:44:20;;;;;;;5.63;1.03;;;15.10;99.90;;;;;;4936425;29;20235;-77
2022/08/05 01:46:48;;;;;;;3.10;1.10;;;14.90;99.90;;;;;;4936661;29;20315;-77
2022/08/05 01:49:20;;;;;;;3.60;1.17;;;14.80;99.90;;;;;;4935615;29;20290;-77
2022/08/05 01:51:48;;;;;;;5.03;0.90;;;14.70;99.90;;;;;;4936171;29;20676;-77
2022/08/05 01:54:19;;;;;;;2.73;1.10;;;14.60;99.90;;;;;;4936411;29;20672;-77
2022/08/05 01:56:47;;;;;;;2.77;0.87;;;14.50;99.90;;;;;;4936150;29;20287;-77
2022/08/05 01:59:20;;;;;;;3.80;1.10;;;14.50;99.90;;;;;;4936391;29;20640;-77
2022/08/05 02:01:49;;;;;;;2.97;1.27;;;14.40;99.90;;;;;;4954289;29;20238;-77
2022/08/05 02:04:20;;;;;;;3.73;1.17;;;14.30;99.90;;;;;;4955042;28;20629;-76
2022/08/05 02:06:47;;;;;;;2.37;1.00;;;14.30;99.90;;;;;;4936196;29;20227;-77
2022/08/05 02:09:14;;;;;;;3.30;1.43;;;14.20;99.90;;;;;;4935798;29;20291;-77
2022/08/05 02:11:45;;;;;;;3.60;1.00;;;14.10;99.90;;;;;;4936125;29;20204;-76
2022/08/05 02:14:15;;;;;;;4.63;1.20;;;14.00;99.90;;;;;;4936367;29;20588;-77
2022/08/05 02:16:47;;;;;;;3.50;1.63;;;14.10;99.90;;;;;;4950834;29;20625;-77
2022/08/05 02:19:20;;;;;;;2.77;1.10;;;14.00;99.90;;;;;;4935670;29;20231;-77
2022/08/05 02:21:52;;;;;;;3.13;1.17;;;14.00;99.90;;;;;;4935835;29;20235;-77
2022/08/05 02:24:24;;;;;;;3.80;1.00;;;14.00;99.90;;;;;;4947755;29;20243;-77
2022/08/05 02:26:56;;;;;;;3.93;1.00;;;13.90;99.90;;;;;;4955041;29;20266;-77
2022/08/05 02:29:27;;;;;;;3.90;1.07;;;13.90;99.90;;;;;;4954828;29;20234;-77
2022/08/05 02:31:57;;;;;;;3.07;0.97;;;13.90;99.90;;;;;;4954904;29;20291;-77
2022/08/05 02:34:26;;;;;;;4.33;1.50;;;13.90;99.90;;;;;;4954819;29;20235;-77
2022/08/05 02:36:58;;;;;;;5.47;1.20;;;13.90;99.90;;;;;;4954818;29;20225;-76
2022/08/05 02:39:27;;;;;;;2.67;1.13;;;13.80;99.90;;;;;;4954817;29;20293;-77
2022/08/05 02:41:57;;;;;;;3.80;1.20;;;13.80;99.90;;;;;;4954941;29;20212;-77
2022/08/05 02:44:26;;;;;;;3.10;1.37;;;13.80;99.90;;;;;;4954912;29;20568;-77
2022/08/05 02:46:58;;;;;;;3.30;1.43;;;13.70;99.90;;;;;;4954550;29;20326;-77
2022/08/05 02:49:26;;;;;;;2.00;1.23;;;13.70;99.90;;;;;;4954592;29;20297;-76
2022/08/05 02:51:54;;;;;;;4.13;1.40;;;13.60;99.90;;;;;;4954575;29;20861;-76
2022/08/05 02:54:22;;;;;;;4.67;1.67;;;13.60;99.90;;;;;;4955126;29;20231;-77
2022/08/05 02:56:51;;;;;;;4.53;1.47;;;13.50;99.90;;;;;;4954580;29;20202;-77
2022/08/05 02:59:20;;;;;;;4.03;1.37;;;13.40;99.90;;;;;;4954773;29;20254;-77
2022/08/05 03:01:50;;;;;;;3.80;1.40;;;13.40;99.90;;;;;;4954317;28;20322;-76
2022/08/05 03:04:19;;;;;;;6.63;1.40;;;13.30;99.90;;;;;;4959029;29;20619;-77
2022/08/05 03:06:46;;;;;;;3.43;1.30;;;13.30;99.90;;;;;;4958159;29;20725;-77
2022/08/05 03:09:14;;;;;;;4.30;1.50;;;13.20;99.90;;;;;;4958253;29;20725;-76
2022/08/05 03:11:43;;;;;;;5.43;1.30;;;13.20;99.90;;;;;;4958608;29;20258;-76
2022/08/05 03:14:10;;;;;;;7.10;1.60;;;13.20;99.90;;;;;;4958320;29;20203;-76
2022/08/05 03:16:38;;;;;;;4.97;1.70;;;13.10;99.90;;;;;;4957785;29;20236;-77
2022/08/05 03:19:05;;;;;;;5.47;1.73;;;;;;;;;;4958039;29;20238;-77
2022/08/05 03:21:33;;;;;;;3.70;1.53;;;13.10;99.90;;;;;;4958528;29;20234;-76
2022/08/05 03:24:01;;;;;;;4.80;1.97;;;13.10;99.90;;;;;;4958289;29;20238;-77
2022/08/05 03:26:28;;;;;;;4.37;1.50;;;13.10;99.90;;;;;;4958354;29;20262;-77
2022/08/05 03:28:55;;;;;;;2.03;1.50;;;13.00;99.90;;;;;;4958085;29;20668;-76
2022/08/05 03:31:23;;;;;;;5.97;1.63;;;13.00;99.90;;;;;;4957877;29;20204;-76
2022/08/05 03:33:51;;;;;;;4.47;1.30;;;13.00;99.90;;;;;;4957926;29;20290;-77
2022/08/05 03:36:18;;;;;;;5.43;1.50;;;13.00;99.90;;;;;;4957935;29;20668;-77
2022/08/05 03:38:46;;;;;;;5.97;1.60;;;13.00;99.90;;;;;;4957565;29;20294;-76
2022/08/05 03:41:15;;;;;;;3.13;1.60;;;13.00;99.90;;;;;;4958233;29;20238;-77
2022/08/05 03:43:42;;;;;;;7.87;1.87;;;13.00;99.90;;;;;;4957749;29;20246;-76
2022/08/05 03:46:10;;;;;;;6.23;1.67;;;13.10;99.90;;;;;;4957460;29;20263;-76
2022/08/05 03:48:37;;;;;;;4.87;1.50;;;13.00;99.90;;;;;;4957682;29;20624;-76
2022/08/05 03:51:11;;;;;;;3.43;1.37;;;13.00;99.90;;;;;;4957898;29;20205;-77
2022/08/05 03:53:43;;;;;;;6.53;1.67;;;13.00;99.90;;;;;;4958048;29;20226;-77
2022/08/05 03:56:19;;;;;;;4.50;1.77;;;13.00;99.90;;;;;;4957786;29;20242;-77
2022/08/05 03:58:50;;;;;;;4.60;1.70;;;13.00;99.90;;;;;;4957472;29;20305;-76
2022/08/05 04:01:19;;;;;;;6.97;1.80;;;13.00;99.90;;;;;;4942647;29;20303;-77
2022/08/05 04:03:48;;;;;;;5.13;1.83;;;12.90;99.90;;;;;;4938046;29;20208;-76
2022/08/05 04:06:17;;;;;;;4.73;1.70;;;12.90;99.90;;;;;;4938155;29;20320;-76
2022/08/05 04:08:46;;;;;;;5.27;1.57;;;12.90;99.90;;;;;;4938472;29;20280;-76
2022/08/05 04:11:14;;;;;;;3.70;1.70;;;12.80;99.90;;;;;;4938247;29;20239;-76
2022/08/05 04:13:42;;;;;;;4.27;1.90;;;12.80;99.90;;;;;;4938060;29;20291;-77
2022/08/05 04:16:09;;;;;;;3.87;1.63;;;12.90;99.90;;;;;;4937972;29;20287;-76
2022/08/05 04:18:37;;;;;;;5.73;1.53;;;12.90;99.90;;;;;;4937907;29;20767;-76
2022/08/05 04:21:06;;;;;;;3.27;1.73;;;12.90;99.90;;;;;;4937976;29;20236;-76
2022/08/05 04:23:36;;;;;;;4.97;1.60;;;12.90;99.90;;;;;;4938201;29;20294;-77
2022/08/05 04:26:03;;;;;;;4.60;1.67;;;12.80;99.90;;;;;;4937990;29;20263;-77
2022/08/05 04:28:31;;;;;;;4.03;1.83;;;12.80;99.90;;;;;;4937548;29;20294;-77
2022/08/05 04:30:59;;;;;;;5.83;1.77;;;12.80;99.90;;;;;;4938031;29;20582;-77
2022/08/05 04:33:26;;;;;;;3.47;1.50;;;12.80;99.90;;;;;;4937645;29;20243;-76
2022/08/05 04:35:53;;;;;;;5.43;2.07;;;12.80;99.90;;;;;;4937840;29;20655;-76
2022/08/05 04:38:20;;;;;;;7.10;1.90;;;12.60;99.90;;;;;;4937714;29;20235;-76
2022/08/05 04:40:47;;;;;;;5.20;1.53;;;12.50;99.90;;;;;;4938006;29;20239;-77
2022/08/05 04:43:14;;;;;;;3.87;1.70;;;12.50;99.90;;;;;;4937451;29;20261;-77
2022/08/05 04:45:42;;;;;;;6.50;1.70;;;12.50;99.90;;;;;;4937967;29;20211;-77
2022/08/05 04:48:11;;;;;;;4.30;1.47;;;12.50;99.90;;;;;;4937378;29;20273;-77
2022/08/05 04:50:42;;;;;;;6.17;1.70;;;12.50;99.90;;;;;;4937743;29;20204;-77
2022/08/05 04:53:10;;;;;;;4.83;1.57;;;12.50;99.90;;;;;;4937522;29;20310;-77
2022/08/05 04:55:38;;;;;;;4.97;1.50;;;12.40;99.90;;;;;;4937650;29;20242;-77
2022/08/05 04:58:05;;;;;;;5.63;1.67;;;12.50;99.90;;;;;;4936925;29;20223;-77
2022/08/05 05:00:32;;;;;;;8.30;2.03;;;12.40;99.90;;;;;;4945459;29;20269;-77
2022/08/05 05:03:01;;;;;;;5.40;1.77;;;12.40;99.90;;;;;;4956456;29;20296;-76
2022/08/05 05:05:28;;;;;;;7.23;1.53;;;12.40;99.90;;;;;;4956481;29;20261;-77
2022/08/05 05:07:56;;;;;;;6.27;1.60;;;12.40;99.90;;;;;;4956048;29;20639;-76
2022/08/05 05:10:23;;;;;;;6.27;1.50;;;12.50;99.90;;;;;;4956282;29;20546;-77
2022/08/05 05:12:50;;;;;;;6.10;1.83;;;12.50;99.90;;;;;;4956105;29;20297;-76
2022/08/05 05:15:17;;;;;;;4.50;1.53;;;12.60;99.90;;;;;;4956106;29;20231;-76
2022/08/05 05:17:44;;;;;;;4.97;1.80;;;12.70;99.90;;;;;;4955934;29;20204;-76
2022/08/05 05:20:14;;;;;;;6.80;1.77;;;12.80;99.90;;;;;;4956163;29;20206;-77
2022/08/05 05:22:41;;;;;;;4.90;1.80;;;12.80;99.90;;;;;;4956123;29;20235;-76
2022/08/05 05:25:09;;;;;;;8.17;2.03;;;12.80;99.90;;;;;;4955271;28;20211;-76
2022/08/05 05:27:37;;;;;;;6.43;1.73;;;12.90;99.90;;;;;;4955640;29;20318;-77
2022/08/05 05:30:06;;;;;;;6.87;1.90;;;13.00;99.90;;;;;;4955792;29;20333;-76
2022/08/05 05:32:33;;;;;;;7.77;2.10;;;13.10;99.90;;;;;;4955759;29;20209;-76
2022/08/05 05:35:00;;;;;;;8.13;1.70;;;13.20;99.90;;;;;;4955712;29;20214;-76
2022/08/05 05:37:28;;;;;;;5.47;1.80;;;13.40;99.90;;;;;;4955766;29;20254;-76
2022/08/05 05:39:55;;;;;;;5.43;1.70;;;13.60;99.90;;;;;;4955638;29;20680;-76
2022/08/05 05:42:22;;;;;;;5.13;1.83;;;14.10;99.90;;;;;;4955181;29;20723;-77
2022/08/05 05:44:49;;;;;;;8.00;1.80;;;14.30;99.90;;;;;;4955622;29;20231;-76
2022/08/05 05:47:16;;;;;;;5.57;1.90;;;14.60;99.90;;;;;;4955080;29;20313;-77
2022/08/05 05:49:43;;;;;;;5.93;1.90;;;15.00;99.90;;;;;;4955645;29;20235;-77
2022/08/05 05:52:09;;;;;;;5.60;1.37;;;15.30;99.90;;;;;;4955582;29;20247;-77
2022/08/05 05:54:38;;;;;;;5.43;1.50;;;15.60;99.90;;;;;;4955147;29;20290;-77
2022/08/05 05:57:05;;;;;;;3.70;1.27;;;15.90;99.90;;;;;;4955149;29;20203;-77
2022/08/05 05:59:32;;;;;;;6.93;1.33;;;16.20;99.90;;;;;;4955161;29;20245;-77
2022/08/05 06:01:59;;;;;;;5.03;1.50;;;16.60;99.90;;;;;;4955127;29;20704;-77
2022/08/05 06:04:25;;;;;;;5.30;1.50;;;17.10;99.90;;;;;;4955347;29;20301;-77
2022/08/05 06:06:52;;;;;;;5.70;1.33;;;17.50;99.90;;;;;;4955085;29;20270;-77
2022/08/05 06:09:19;;;;;;;4.32;1.33;;;18.20;99.90;;;;;;4955040;29;20290;-77
2022/08/05 06:11:47;;;;;;;8.65;1.88;;;18.70;99.90;;;;;;4955214;29;20234;-77
2022/08/05 06:14:14;;;;;;;6.80;1.60;;;18.90;99.90;;;;;;4955086;29;20706;-77
2022/08/05 06:16:41;;;;;;;7.32;1.30;;;19.40;99.90;;;;;;4954805;29;20238;-76
2022/08/05 06:19:08;;;;;;;3.97;1.20;;;20.10;99.90;;;;;;4955233;29;20235;-77
2022/08/05 06:21:36;;;;;;;4.90;1.02;;;20.40;99.90;;;;;;4955151;29;20290;-77
2022/08/05 06:24:03;;;;;;;4.70;1.20;;;20.90;99.90;;;;;;4955214;29;20235;-77
2022/08/05 06:26:30;;;;;;;5.60;1.50;;;21.50;99.90;;;;;;4954635;29;20214;-77
2022/08/05 06:28:58;;;;;;;5.68;1.33;;;21.00;99.90;;;;;;4954848;29;20267;-77
2022/08/05 06:31:25;;;;;;;4.72;1.20;;;21.50;99.90;;;;;;4955237;29;20231;-77
2022/08/05 06:33:52;;;;;;;4.63;1.40;;;22.00;99.90;;;;;;4954840;29;20199;-77
2022/08/05 06:36:19;;;;;;;4.95;1.20;;;22.50;99.90;;;;;;4955144;28;20203;-77
2022/08/05 06:38:46;;;;;;;5.45;1.10;;;22.70;99.90;;;;;;4954556;29;20234;-78
2022/08/05 06:41:13;;;;;;;4.75;1.20;;;22.60;99.90;;;;;;4954917;29;20213;-78
2022/08/05 06:43:40;;;;;;;6.65;1.45;;;23.20;99.90;;;;;;4954960;29;20263;-78
2022/08/05 06:46:08;;;;;;;4.68;1.20;;;23.50;99.90;;;;;;4955248;29;20234;-78
2022/08/05 06:48:35;;;;;;;4.78;1.20;;;24.00;99.90;;;;;;4954983;29;20318;-78
2022/08/05 06:51:04;;;;;;;8.40;1.20;;;24.10;99.90;;;;;;4954965;29;20731;-78
2022/08/05 06:53:32;;;;;;;4.63;1.50;;;24.00;99.90;;;;;;4953985;29;20246;-78
2022/08/05 06:56:02;;;;;;;5.72;1.40;;;24.30;99.90;;;;;;4954775;29;20207;-78
2022/08/05 06:58:30;;;;;;;3.53;1.20;;;24.00;99.90;;;;;;4954528;29;20663;-78
2022/08/05 07:00:58;;;;;;;5.55;1.02;;;23.90;99.90;;;;;;4954499;29;20590;-78
2022/08/05 07:03:27;;;;;;;7.40;1.35;;;24.20;99.90;;;;;;4954880;29;20591;-78
2022/08/05 07:05:54;;;;;;;6.82;1.45;;;24.50;99.90;;;;;;4954621;29;20307;-78
2022/08/05 07:08:21;;;;;;;6.40;1.30;;;23.90;99.90;;;;;;4954156;29;20273;-77
2022/08/05 07:10:49;;;;;;;5.05;1.73;;;23.00;99.90;;;;;;4954560;29;20699;-78
2022/08/05 07:18:45;;;;;;;4.80;1.27;;;24.60;99.90;;;;;;4954409;29;20206;-78
2022/08/05 07:21:12;;;;;;;5.35;1.80;;;25.30;99.90;;;;;;4954287;29;20294;-78
2022/08/05 07:23:39;;;;;;;5.70;1.30;;;25.30;99.90;;;;;;4969094;28;20206;-76
2022/08/05 07:26:06;;;;;;;3.05;1.40;;;24.70;99.90;;;;;;4954648;29;20610;-78
2022/08/05 07:28:33;;;;;;;3.83;1.23;;;25.90;99.90;;;;;;4954077;29;20300;-78
2022/08/05 07:31:00;;;;;;;6.97;1.27;;;26.30;99.90;;;;;;4954383;29;20231;-78
2022/08/05 07:33:27;;;;;;;9.02;1.42;;;25.80;99.90;;;;;;4954734;29;20254;-78
2022/08/05 07:35:55;;;;;;;3.10;1.10;;;26.20;99.90;;;;;;4954741;29;20230;-77
2022/08/05 07:38:22;;;;;;;3.90;1.52;;;25.30;99.90;;;;;;4954100;29;20626;-78
2022/08/05 07:40:49;;;;;;;4.28;1.02;;;25.30;99.90;;;;;;4954263;29;20292;-78
2022/08/05 07:43:16;;;;;;;4.70;1.30;;;25.10;99.90;;;;;;4954220;29;20294;-78
2022/08/05 07:45:43;;;;;;;5.28;1.20;;;25.60;99.90;;;;;;4954672;29;20286;-78
2022/08/05 07:48:10;;;;;;;4.45;1.20;;;24.90;99.90;;;;;;4955137;28;20619;-78
2022/08/05 07:50:38;;;;;;;8.70;1.27;;;24.10;99.90;;;;;;4957758;29;20289;-77
2022/08/05 07:53:06;;;;;;;7.40;1.48;;;24.70;99.90;;;;;;4957546;29;20234;-78
2022/08/05 07:55:33;;;;;;;6.25;1.40;;;24.90;99.90;;;;;;4957719;29;20270;-78
2022/08/05 07:58:00;;;;;;;4.10;1.30;;;25.20;99.90;;;;;;4957786;29;20274;-78
2022/08/05 08:00:27;;;;;;;4.50;1.25;;;25.30;99.90;;;;;;4949831;29;20868;-78
2022/08/05 08:02:54;;;;;;;5.43;1.58;;;25.30;99.90;;;;;;4938436;29;20234;-78
2022/08/05 08:05:20;;;;;;;4.60;1.40;;;26.20;99.90;;;;;;4938026;29;20260;-78
2022/08/05 08:07:47;;;;;;;3.58;1.30;;;25.40;99.90;;;;;;4947805;29;20680;-78
2022/08/05 08:10:16;;;;;;;5.88;1.50;;;24.40;99.90;;;;;;4957024;29;20199;-78
2022/08/05 08:12:43;;;;;;;5.53;1.30;;;25.10;99.90;;;;;;4957360;28;20637;-77
2022/08/05 08:15:13;;;;;;;3.20;1.48;;;25.10;99.90;;;;;;4957504;29;20286;-78
2022/08/05 08:17:40;;;;;;;5.03;1.77;;;24.80;99.90;;;;;;4957545;29;20262;-78
2022/08/05 08:20:08;;;;;;;5.03;1.40;;;25.00;99.90;;;;;;4957639;29;20234;-77
2022/08/05 08:22:35;;;;;;;6.07;1.55;;;24.20;99.90;;;;;;4957073;28;20596;-78
2022/08/05 08:25:02;;;;;;;6.97;1.77;;;25.10;99.90;;;;;;4957331;28;20290;-79
2022/08/05 08:27:30;;;;;;;4.25;1.30;;;25.30;99.90;;;;;;4956908;29;20223;-78
2022/08/05 08:29:57;;;;;;;3.95;1.40;;;25.80;99.90;;;;;;4957114;28;20294;-78
2022/08/05 08:32:24;;;;;;;4.43;1.50;;;25.60;99.90;;;;;;4957300;28;20235;-78
2022/08/05 08:34:51;;;;;;;4.95;1.50;;;25.90;99.90;;;;;;4956955;29;20302;-78
2022/08/05 08:37:18;;;;;;;3.75;1.20;;;25.80;99.90;;;;;;4957445;29;20242;-78
2022/08/05 08:39:45;;;;;;;5.25;1.30;;;25.90;99.90;;;;;;4956802;28;20294;-78
2022/08/05 08:42:13;;;;;;;5.10;1.63;;;26.30;99.90;;;;;;4957101;29;20648;-78
2022/08/05 08:44:43;;;;;;;4.78;1.42;;;26.00;98.10;;;;;;4957025;29;20289;-78
2022/08/05 08:47:11;;;;;;;3.45;1.40;;;25.60;99.90;;;;;;4957115;29;20207;-78
2022/08/05 08:49:41;;;;;;;4.18;1.20;;;26.10;99.90;;;;;;4956807;29;20234;-78
2022/08/05 08:52:12;;;;;;;3.63;1.30;;;27.00;97.80;;;;;;4957240;29;20235;-78
2022/08/05 08:54:40;;;;;;;3.70;1.30;;;26.70;90.80;;;;;;4956727;29;20199;-78
2022/08/05 08:57:07;;;;;;;4.25;1.25;;;27.10;90.90;;;;;;4956478;29;20242;-78
2022/08/05 08:59:35;;;;;;;5.32;1.48;;;26.80;82.60;;;;;;4955865;28;20255;-78
2022/08/05 09:02:06;;;;;;;4.80;1.45;;;26.50;81.10;;;;;;4976048;28;20199;-78
2022/08/05 09:04:36;;;;;;;5.32;2.17;;;27.10;84.40;;;;;;4975421;28;20293;-78
2022/08/05 09:07:04;;;;;;;4.93;1.50;;;27.50;70.20;;;;;;4975629;28;20241;-78
2022/08/05 09:09:32;;;;;;;4.95;1.50;;;27.90;66.40;;;;;;4975672;28;20225;-78
2022/08/05 09:11:59;;;;;;;4.43;1.40;;;27.30;67.10;;;;;;4975617;28;20234;-77
2022/08/05 09:14:27;;;;;;;3.53;1.20;;;28.00;61.00;;;;;;4975563;28;20258;-77
2022/08/05 09:16:54;;;;;;;4.70;1.45;;;28.50;57.30;;;;;;4975744;28;20301;-77
2022/08/05 09:19:22;;;;;;;5.95;1.60;;;27.80;57.10;;;;;;4975121;28;20697;-77
2022/08/05 09:21:49;;;;;;;4.35;1.45;;;28.00;47.60;;;;;;4975467;28;20202;-78
2022/08/05 09:24:16;;;;;;;4.88;1.30;;;27.70;52.60;;;;;;4975382;28;20245;-77
2022/08/05 09:26:47;;;;;;;4.93;1.30;;;27.80;53.60;;;;;;4975268;28;20582;-77
2022/08/05 09:29:14;;;;;;;2.90;1.20;;;28.30;54.30;;;;;;4975505;28;20226;-75
2022/08/05 09:31:43;;;;;;;4.38;1.50;;;28.10;41.90;;;;;;4975270;28;20202;-77
2022/08/05 09:34:10;;;;;;;3.60;1.30;;;27.50;49.10;;;;;;4975005;28;20198;-77
2022/08/05 09:36:42;;;;;;;6.97;1.35;;;27.10;52.90;;;;;;4975110;28;20254;-77
2022/08/05 09:39:13;;;;;;;7.43;1.65;;;27.80;48.90;;;;;;4974922;28;20671;-77
2022/08/05 09:41:57;;;;;;;5.78;1.50;;;27.90;49.20;;;;;;4975168;28;20240;-77
2022/08/05 09:44:35;;;;;;;4.40;1.52;;;27.50;45.00;;;;;;4975064;28;20682;-77
2022/08/05 09:47:10;;;;;;;4.22;1.60;;;26.10;58.50;;;;;;4975443;28;20230;-77
2022/08/05 09:49:42;;;;;;;4.88;1.55;;;27.50;60.70;;;;;;4974836;28;20653;-74
2022/08/05 09:52:22;;;;;;;5.03;1.50;;;28.50;41.90;;;;;;4974779;28;20206;-74
2022/08/05 09:54:54;;;;;;;3.78;1.20;;;28.20;36.30;;;;;;4974895;28;20634;-77
2022/08/05 09:57:36;;;;;;;2.75;1.33;;;28.50;34.30;;;;;;4974743;28;20738;-77
2022/08/05 10:00:10;;;;;;;3.47;1.20;;;28.60;27.00;;;;;;4974464;28;20230;-77
2022/08/05 10:02:38;;;;;;;7.28;1.50;;;28.20;39.00;;;;;;4974426;28;20224;-78
2022/08/05 10:05:14;;;;;;;5.45;1.20;;;28.40;33.10;;;;;;4974501;28;20241;-78
2022/08/05 10:07:53;;;;;;;7.00;1.75;;;28.80;37.90;;;;;;4965337;28;20701;-77
2022/08/05 10:10:22;;;;;;;5.72;1.42;;;29.00;24.90;;;;;;4955108;28;20663;-77
2022/08/05 10:12:52;;;;;;;5.30;1.35;;;28.60;25.80;;;;;;4955169;29;20255;-77
2022/08/05 10:15:22;;;;;;;5.78;1.50;;;27.00;49.80;;;;;;4955459;29;20676;-77
2022/08/05 10:18:12;;;;;;;4.57;1.25;;;27.70;43.20;;;;;;4954827;29;20723;-77
2022/08/05 10:20:42;;;;;;;5.47;1.38;;;28.60;26.20;;;;;;4955041;29;20633;-77
2022/08/05 10:23:13;;;;;;;4.10;1.20;;;28.50;31.00;;;;;;4955074;29;20207;-77
2022/08/05 10:25:40;;;;;;;5.90;1.42;;;27.20;29.40;;;;;;4955322;29;20203;-77
2022/08/05 10:28:08;;;;;;;2.78;1.13;;;27.10;44.00;;;;;;4955079;29;20341;-77
2022/08/05 10:30:36;;;;;;;3.65;1.42;;;28.50;35.80;;;;;;4955080;29;20650;-77
2022/08/05 10:33:04;;;;;;;6.47;1.55;;;27.60;30.60;;;;;;4954677;29;20294;-77
2022/08/05 10:35:31;;;;;;;7.05;1.30;;;25.90;50.50;;;;;;4954841;29;20262;-77
2022/08/05 10:38:00;;;;;;;6.97;1.45;;;26.30;58.80;;;;;;4954900;29;20293;-77
2022/08/05 10:40:34;;;;;;;5.38;1.58;;;26.90;43.10;;;;;;4955013;29;20330;-77
2022/08/05 10:43:11;;;;;;;5.20;1.20;;;26.20;50.00;;;;;;4954867;29;20750;-77
2022/08/05 10:45:38;;;;;;;5.78;1.23;;;25.10;62.70;;;;;;4954806;29;20318;-77
2022/08/05 10:48:34;;;;;;;6.82;1.50;;;24.50;70.70;;;;;;4954416;29;20294;-77
2022/08/05 10:51:04;;;;;;;4.22;1.30;;;24.80;74.60;;;;;;4954707;29;20234;-77
2022/08/05 10:53:53;;;;;;;6.13;1.52;;;27.30;53.00;;;;;;4954803;29;20243;-77
2022/08/05 10:56:23;;;;;;;3.47;1.60;;;27.50;33.10;;;;;;4955056;29;20213;-77
2022/08/05 10:59:04;;;;;;;3.80;1.30;;;25.70;56.90;;;;;;4954902;29;20257;-77
2022/08/05 11:01:32;;;;;;;4.30;1.42;;;25.40;64.90;;;;;;4938619;29;20312;-77
2022/08/05 11:04:10;;;;;;;4.05;1.30;;;25.30;65.30;;;;;;4935404;29;20711;-77
2022/08/05 11:07:05;;;;;;;2.67;1.20;;;27.40;45.70;;;;;;4935488;29;20219;-77
2022/08/05 11:09:39;;;;;;;3.35;1.50;;;28.20;28.40;;;;;;4935501;29;20573;-77
2022/08/05 11:12:44;;;;;;;5.50;1.30;;;27.60;24.00;;;;;;4935440;29;20231;-77
2022/08/05 11:15:18;;;;;;;2.90;1.00;;;27.50;35.80;;;;;;4935005;29;20207;-77
2022/08/05 11:17:46;;;;;;;4.40;1.40;;;29.50;22.00;;;;;;4935275;29;20239;-77
2022/08/05 11:20:36;;;;;;;5.55;1.40;;;27.50;27.30;;;;;;4935010;29;20232;-77
2022/08/05 11:23:30;;;;;;;4.60;1.33;;;25.90;55.90;;;;;;4935948;29;20203;-77
2022/08/05 11:26:08;;;;;;;7.25;1.38;;;26.80;51.70;;;;;;4939204;29;20343;-77
2022/08/05 11:28:58;;;;;;;6.78;1.70;;;27.20;37.20;;;;;;4938811;29;20230;-77
2022/08/05 11:31:29;;;;;;;5.88;1.50;;;26.40;52.00;;;;;;4939012;29;20299;-77
2022/08/05 11:33:59;;;;;;;2.67;1.10;;;27.30;41.80;;;;;;4938998;29;20231;-77
2022/08/05 11:36:51;;;;;;;6.68;1.40;;;28.60;24.70;;;;;;4938872;29;20208;-77
2022/08/05 11:39:50;;;;;;;4.25;1.38;;;28.90;27.10;;;;;;4938804;29;20226;-77
2022/08/05 11:42:24;;;;;;;5.78;1.40;;;27.70;19.00;;;;;;4938763;29;20203;-77
2022/08/05 11:45:00;;;;;;;5.32;1.10;;;26.50;51.30;;;;;;4938461;29;20668;-77
2022/08/05 11:47:28;;;;;;;4.97;1.38;;;28.20;40.60;;;;;;4938631;29;20203;-77
2022/08/05 11:49:59;;;;;;;4.55;1.08;;;29.00;9.60;;;;;;4938756;29;20231;-77
2022/08/05 11:52:27;;;;;;;4.82;1.15;;;28.80;17.80;;;;;;4938460;29;20208;-77
2022/08/05 11:54:54;;;;;;;1.63;1.00;;;29.40;6.90;;;;;;4938619;29;20238;-78
2022/08/05 11:57:27;;;;;;;4.90;1.20;;;27.20;7.60;;;;;;4938422;29;20621;-77
2022/08/05 11:59:55;;;;;;;3.13;1.00;;;26.30;28.70;;;;;;4941322;29;20326;-77
2022/08/05 12:02:27;;;;;;;3.58;1.20;;;25.50;39.30;;;;;;4957492;29;20237;-77
2022/08/05 12:04:54;;;;;;;1.92;1.02;;;27.90;20.90;;;;;;4957515;29;20210;-77
2022/08/05 12:07:21;;;;;;;5.95;1.15;;;29.60;9.10;;;;;;4957308;29;20238;-77
2022/08/05 12:09:52;;;;;;;4.28;1.23;;;29.00;1.00;;;;;;4957535;29;20309;-77
2022/08/05 12:12:23;;;;;;;2.75;1.13;;;28.20;1.00;;;;;;4957087;29;20287;-77
2022/08/05 12:14:50;;;;;;;3.50;1.05;;;26.20;15.10;;;;;;4957483;29;20239;-77
2022/08/05 12:17:19;;;;;;;4.05;1.02;;;25.60;31.60;;;;;;4957430;29;20245;-77
2022/08/05 12:19:48;;;;;;;2.78;1.20;;;27.10;17.80;;;;;;4957087;29;20200;-77
2022/08/05 12:22:17;;;;;;;3.92;1.10;;;26.20;20.00;;;;;;4957431;29;20231;-77
2022/08/05 12:24:46;;;;;;;3.00;0.80;;;27.20;14.30;;;;;;4957372;29;20207;-77
2022/08/05 12:27:20;;;;;;;4.88;1.20;;;28.20;1.00;;;;;;4956863;29;20702;-77
2022/08/05 12:29:58;;;;;;;4.35;0.80;;;28.00;1.00;;;;;;4957163;29;20285;-77
2022/08/05 12:32:26;;;;;;;2.75;1.00;;;29.80;1.00;;;;;;4956740;29;20687;-77
2022/08/05 12:34:54;;;;;;;3.50;1.00;;;29.10;1.00;;;;;;4956537;28;20297;-77
2022/08/05 12:37:21;;;;;;;2.97;1.10;;;26.60;1.00;;;;;;4957122;29;20258;-77
2022/08/05 12:39:49;;;;;;;2.70;1.05;;;26.00;5.70;;;;;;4957016;29;20626;-77
2022/08/05 12:42:17;;;;;;;3.55;0.95;;;26.90;1.10;;;;;;4956519;29;20246;-77
2022/08/05 12:44:45;;;;;;;5.88;1.10;;;29.00;1.00;;;;;;4956867;29;20234;-77
2022/08/05 12:47:13;;;;;;;2.47;0.93;;;28.50;1.00;;;;;;4956876;29;20285;-77
2022/08/05 12:49:44;;;;;;;4.18;1.13;;;30.70;1.00;;;;;;4956675;29;20233;-77
2022/08/05 12:52:16;;;;;;;2.95;0.80;;;30.50;1.00;;;;;;4956566;29;20203;-77
2022/08/05 12:54:46;;;;;;;6.22;1.02;;;30.40;1.00;;;;;;4956566;29;20925;-77
2022/08/05 12:57:13;;;;;;;1.52;0.93;;;29.40;1.00;;;;;;4956348;29;20305;-77
2022/08/05 12:59:44;;;;;;;2.40;0.93;;;28.70;1.00;;;;;;4956337;29;20290;-77
2022/08/05 13:02:15;;;;;;;2.42;0.90;;;28.70;1.00;;;;;;4956513;29;20603;-77
2022/08/05 13:04:44;;;;;;;3.03;1.10;;;28.60;1.00;;;;;;4956361;29;20375;-78
2022/08/05 13:07:14;;;;;;;1.85;0.85;;;28.20;1.00;;;;;;4956123;29;20297;-77